Terminal Aerodrome Forecast
Issued by NWS North Platte, NE

Home | Current Version | Previous Version | Text Only | Print | Product List | Glossary On
Versions: 1 2 3 4 5 6 7 8 9 10 11 12 13 14 15 16
000
FTUS43 KLBF 211720
TAFVTN
TAF
KVTN 211720Z 2118/2218 17019G27KT P6SM SKC
     FM220000 16012KT P6SM SKC
     FM220200 15010KT P6SM SKC
     FM220600 16010KT P6SM SKC WS020/18040KT
     FM221100 19010KT P6SM FEW250 WS012/20020KT
     FM221200 21011KT P6SM FEW250=

USA.gov is the U.S. government's official web portal to all federal, state and local government web resources and services.